sensor_id;sensor_type;location;lat;lon;timestamp;temperature;humidity
16838;DHT22;19510;54.486;9.046;2023-07-29T00:00:49;19.00;99.90
16838;DHT22;19510;54.486;9.046;2023-07-29T00:03:15;19.00;99.90
16838;DHT22;19510;54.486;9.046;2023-07-29T00:05:43;19.00;99.90
16838;DHT22;19510;54.486;9.046;2023-07-29T00:08:11;18.90;99.90
16838;DHT22;19510;54.486;9.046;2023-07-29T00:10:37;18.90;99.90
16838;DHT22;19510;54.486;9.046;2023-07-29T00:13:06;18.90;99.90
16838;DHT22;19510;54.486;9.046;2023-07-29T00:15:32;18.90;99.90
16838;DHT22;19510;54.486;9.046;2023-07-29T00:17:58;18.80;99.90
16838;DHT22;19510;54.486;9.046;2023-07-29T00:20:24;18.80;99.90
16838;DHT22;19510;54.486;9.046;2023-07-29T00:22:50;18.80;99.90
16838;DHT22;19510;54.486;9.046;2023-07-29T00:25:18;18.90;99.90
16838;DHT22;19510;54.486;9.046;2023-07-29T00:27:44;18.90;99.90
16838;DHT22;19510;54.486;9.046;2023-07-29T00:30:10;18.80;99.90
16838;DHT22;19510;54.486;9.046;2023-07-29T00:32:38;18.80;99.90
16838;DHT22;19510;54.486;9.046;2023-07-29T00:35:04;18.80;99.90
16838;DHT22;19510;54.486;9.046;2023-07-29T00:37:30;18.80;99.90
16838;DHT22;19510;54.486;9.046;2023-07-29T00:39:56;18.80;99.90
16838;DHT22;19510;54.486;9.046;2023-07-29T00:42:23;18.80;99.90
16838;DHT22;19510;54.486;9.046;2023-07-29T00:44:49;18.70;99.90
16838;DHT22;19510;54.486;9.046;2023-07-29T00:47:15;18.70;99.90
16838;DHT22;19510;54.486;9.046;2023-07-29T00:49:43;18.70;99.90
16838;DHT22;19510;54.486;9.046;2023-07-29T00:52:09;18.70;99.90
16838;DHT22;19510;54.486;9.046;2023-07-29T00:54:38;18.70;99.90
16838;DHT22;19510;54.486;9.046;2023-07-29T00:57:04;18.70;99.90
16838;DHT22;19510;54.486;9.046;2023-07-29T00:59:31;18.70;99.90
16838;DHT22;19510;54.486;9.046;2023-07-29T01:01:57;18.70;99.90
16838;DHT22;19510;54.486;9.046;2023-07-29T01:04:23;18.70;99.90
16838;DHT22;19510;54.486;9.046;2023-07-29T01:09:27;18.70;99.90
16838;DHT22;19510;54.486;9.046;2023-07-29T01:14:36;18.70;99.90
16838;DHT22;19510;54.486;9.046;2023-07-29T01:17:08;18.60;99.90
16838;DHT22;19510;54.486;9.046;2023-07-29T01:22:11;18.60;99.90
16838;DHT22;19510;54.486;9.046;2023-07-29T01:24:38;18.60;99.90
16838;DHT22;19510;54.486;9.046;2023-07-29T01:27:04;18.60;99.90
16838;DHT22;19510;54.486;9.046;2023-07-29T01:29:31;18.60;99.90
16838;DHT22;19510;54.486;9.046;2023-07-29T01:32:01;18.50;99.90
16838;DHT22;19510;54.486;9.046;2023-07-29T01:34:45;18.60;99.90
16838;DHT22;19510;54.486;9.046;2023-07-29T01:37:16;18.60;99.90
16838;DHT22;19510;54.486;9.046;2023-07-29T01:39:45;18.70;99.90
16838;DHT22;19510;54.486;9.046;2023-07-29T01:42:12;18.60;99.90
16838;DHT22;19510;54.486;9.046;2023-07-29T01:44:37;18.60;99.90
16838;DHT22;19510;54.486;9.046;2023-07-29T01:47:03;18.60;99.90
16838;DHT22;19510;54.486;9.046;2023-07-29T01:49:29;18.60;99.90
16838;DHT22;19510;54.486;9.046;2023-07-29T01:51:55;18.60;99.90
16838;DHT22;19510;54.486;9.046;2023-07-29T01:54:21;18.50;99.90
16838;DHT22;19510;54.486;9.046;2023-07-29T01:56:46;18.50;99.90
16838;DHT22;19510;54.486;9.046;2023-07-29T01:59:12;18.60;99.90
16838;DHT22;19510;54.486;9.046;2023-07-29T02:01:39;18.50;99.90
16838;DHT22;19510;54.486;9.046;2023-07-29T02:04:05;18.60;99.90
16838;DHT22;19510;54.486;9.046;2023-07-29T02:06:30;18.50;99.90
16838;DHT22;19510;54.486;9.046;2023-07-29T02:08:56;18.50;99.90
16838;DHT22;19510;54.486;9.046;2023-07-29T02:11:22;18.50;99.90
16838;DHT22;19510;54.486;9.046;2023-07-29T02:13:53;18.50;99.90
16838;DHT22;19510;54.486;9.046;2023-07-29T02:16:19;18.60;99.90
16838;DHT22;19510;54.486;9.046;2023-07-29T02:18:45;18.50;99.90
16838;DHT22;19510;54.486;9.046;2023-07-29T02:21:11;18.50;99.90
16838;DHT22;19510;54.486;9.046;2023-07-29T02:23:36;18.40;99.90
16838;DHT22;19510;54.486;9.046;2023-07-29T02:26:02;18.40;99.90
16838;DHT22;19510;54.486;9.046;2023-07-29T02:28:28;18.40;99.90
16838;DHT22;19510;54.486;9.046;2023-07-29T02:31:16;18.40;99.90
16838;DHT22;19510;54.486;9.046;2023-07-29T02:33:43;18.40;99.90
16838;DHT22;19510;54.486;9.046;2023-07-29T02:36:09;18.40;99.90
16838;DHT22;19510;54.486;9.046;2023-07-29T02:38:35;18.40;99.90
16838;DHT22;19510;54.486;9.046;2023-07-29T02:41:00;18.40;99.90
16838;DHT22;19510;54.486;9.046;2023-07-29T02:43:26;18.40;99.90
16838;DHT22;19510;54.486;9.046;2023-07-29T02:45:52;18.40;99.90
16838;DHT22;19510;54.486;9.046;2023-07-29T02:48:18;18.40;99.90
16838;DHT22;19510;54.486;9.046;2023-07-29T02:50:43;18.40;99.90
16838;DHT22;19510;54.486;9.046;2023-07-29T02:53:09;18.40;99.90
16838;DHT22;19510;54.486;9.046;2023-07-29T02:55:35;18.50;99.90
16838;DHT22;19510;54.486;9.046;2023-07-29T02:58:04;18.40;99.90
16838;DHT22;19510;54.486;9.046;2023-07-29T03:00:31;18.40;99.90
16838;DHT22;19510;54.486;9.046;2023-07-29T03:02:57;18.40;99.90
16838;DHT22;19510;54.486;9.046;2023-07-29T03:05:22;18.40;99.90
16838;DHT22;19510;54.486;9.046;2023-07-29T03:07:48;18.40;99.90
16838;DHT22;19510;54.486;9.046;2023-07-29T03:10:14;18.40;99.90
16838;DHT22;19510;54.486;9.046;2023-07-29T03:12:40;18.40;99.90
16838;DHT22;19510;54.486;9.046;2023-07-29T03:15:06;18.40;99.90
16838;DHT22;19510;54.486;9.046;2023-07-29T03:17:32;18.40;99.90
16838;DHT22;19510;54.486;9.046;2023-07-29T03:19:58;18.40;99.90
16838;DHT22;19510;54.486;9.046;2023-07-29T03:22:24;18.40;99.90
16838;DHT22;19510;54.486;9.046;2023-07-29T03:24:49;18.40;99.90
16838;DHT22;19510;54.486;9.046;2023-07-29T03:27:15;18.40;99.90
16838;DHT22;19510;54.486;9.046;2023-07-29T03:29:41;18.40;99.90
16838;DHT22;19510;54.486;9.046;2023-07-29T03:32:07;18.40;99.90
16838;DHT22;19510;54.486;9.046;2023-07-29T03:34:33;18.30;99.90
16838;DHT22;19510;54.486;9.046;2023-07-29T03:37:00;18.30;99.90
16838;DHT22;19510;54.486;9.046;2023-07-29T03:39:26;18.30;99.90
16838;DHT22;19510;54.486;9.046;2023-07-29T03:41:52;18.30;99.90
16838;DHT22;19510;54.486;9.046;2023-07-29T03:44:20;18.40;99.90
16838;DHT22;19510;54.486;9.046;2023-07-29T03:46:46;18.30;99.90
16838;DHT22;19510;54.486;9.046;2023-07-29T03:49:11;18.30;99.90
16838;DHT22;19510;54.486;9.046;2023-07-29T03:51:37;18.30;99.90
16838;DHT22;19510;54.486;9.046;2023-07-29T03:54:03;18.30;99.90
16838;DHT22;19510;54.486;9.046;2023-07-29T03:56:28;18.30;99.90
16838;DHT22;19510;54.486;9.046;2023-07-29T03:59:05;18.40;99.90
16838;DHT22;19510;54.486;9.046;2023-07-29T04:01:31;18.30;99.90
16838;DHT22;19510;54.486;9.046;2023-07-29T04:03:57;18.30;99.90
16838;DHT22;19510;54.486;9.046;2023-07-29T04:06:23;18.30;99.90
16838;DHT22;19510;54.486;9.046;2023-07-29T04:08:49;18.30;99.90
16838;DHT22;19510;54.486;9.046;2023-07-29T04:11:15;18.30;99.90
16838;DHT22;19510;54.486;9.046;2023-07-29T04:13:40;18.30;99.90
16838;DHT22;19510;54.486;9.046;2023-07-29T04:16:07;18.30;99.90
16838;DHT22;19510;54.486;9.046;2023-07-29T04:18:33;18.30;99.90
16838;DHT22;19510;54.486;9.046;2023-07-29T04:20:59;18.30;99.90
16838;DHT22;19510;54.486;9.046;2023-07-29T04:23:24;18.40;99.90
16838;DHT22;19510;54.486;9.046;2023-07-29T04:25:50;18.40;99.90
16838;DHT22;19510;54.486;9.046;2023-07-29T04:28:17;18.40;99.90
16838;DHT22;19510;54.486;9.046;2023-07-29T04:30:43;18.40;99.90
16838;DHT22;19510;54.486;9.046;2023-07-29T04:33:09;18.30;99.90
16838;DHT22;19510;54.486;9.046;2023-07-29T04:35:35;18.30;99.90
16838;DHT22;19510;54.486;9.046;2023-07-29T04:38:00;18.30;99.90
16838;DHT22;19510;54.486;9.046;2023-07-29T04:40:26;18.30;99.90
16838;DHT22;19510;54.486;9.046;2023-07-29T04:42:52;18.20;99.90
16838;DHT22;19510;54.486;9.046;2023-07-29T04:45:17;18.30;99.90
16838;DHT22;19510;54.486;9.046;2023-07-29T04:47:43;18.30;99.90
16838;DHT22;19510;54.486;9.046;2023-07-29T04:50:09;18.30;99.90
16838;DHT22;19510;54.486;9.046;2023-07-29T04:52:35;18.20;99.90
16838;DHT22;19510;54.486;9.046;2023-07-29T04:55:00;18.30;99.90
16838;DHT22;19510;54.486;9.046;2023-07-29T04:57:26;18.30;99.90
16838;DHT22;19510;54.486;9.046;2023-07-29T04:59:52;18.20;99.90
16838;DHT22;19510;54.486;9.046;2023-07-29T05:02:17;18.20;99.90
16838;DHT22;19510;54.486;9.046;2023-07-29T05:04:43;18.20;99.90
16838;DHT22;19510;54.486;9.046;2023-07-29T05:07:09;18.20;99.90
16838;DHT22;19510;54.486;9.046;2023-07-29T05:09:34;18.30;99.90
16838;DHT22;19510;54.486;9.046;2023-07-29T05:12:00;18.20;99.90
16838;DHT22;19510;54.486;9.046;2023-07-29T05:14:26;18.20;99.90
16838;DHT22;19510;54.486;9.046;2023-07-29T05:16:52;18.20;99.90
16838;DHT22;19510;54.486;9.046;2023-07-29T05:19:17;18.30;99.90
16838;DHT22;19510;54.486;9.046;2023-07-29T05:21:43;18.20;99.90
16838;DHT22;19510;54.486;9.046;2023-07-29T05:24:09;18.30;99.90
16838;DHT22;19510;54.486;9.046;2023-07-29T05:26:34;18.30;99.90
16838;DHT22;19510;54.486;9.046;2023-07-29T05:29:00;18.30;99.90
16838;DHT22;19510;54.486;9.046;2023-07-29T05:31:26;18.40;99.90
16838;DHT22;19510;54.486;9.046;2023-07-29T05:33:51;18.40;99.90
16838;DHT22;19510;54.486;9.046;2023-07-29T05:36:17;18.40;99.90
16838;DHT22;19510;54.486;9.046;2023-07-29T05:38:43;18.40;99.90
16838;DHT22;19510;54.486;9.046;2023-07-29T05:41:09;18.50;99.90
16838;DHT22;19510;54.486;9.046;2023-07-29T05:43:34;18.50;99.90
16838;DHT22;19510;54.486;9.046;2023-07-29T05:46:00;18.60;99.90
16838;DHT22;19510;54.486;9.046;2023-07-29T05:48:27;18.60;99.90
16838;DHT22;19510;54.486;9.046;2023-07-29T05:50:52;18.60;99.90
16838;DHT22;19510;54.486;9.046;2023-07-29T05:53:18;18.70;99.90
16838;DHT22;19510;54.486;9.046;2023-07-29T05:55:44;18.70;99.90
16838;DHT22;19510;54.486;9.046;2023-07-29T05:58:09;18.70;99.90
16838;DHT22;19510;54.486;9.046;2023-07-29T06:00:35;18.70;99.90
16838;DHT22;19510;54.486;9.046;2023-07-29T06:03:01;18.70;99.90
16838;DHT22;19510;54.486;9.046;2023-07-29T06:05:27;18.70;99.90
16838;DHT22;19510;54.486;9.046;2023-07-29T06:07:52;18.70;99.90
16838;DHT22;19510;54.486;9.046;2023-07-29T06:10:18;18.70;99.90
16838;DHT22;19510;54.486;9.046;2023-07-29T06:12:45;18.70;99.90
16838;DHT22;19510;54.486;9.046;2023-07-29T06:15:11;18.70;99.90
16838;DHT22;19510;54.486;9.046;2023-07-29T06:17:38;18.80;99.90
16838;DHT22;19510;54.486;9.046;2023-07-29T06:20:04;18.80;99.90
16838;DHT22;19510;54.486;9.046;2023-07-29T06:22:30;18.80;99.90
16838;DHT22;19510;54.486;9.046;2023-07-29T06:24:55;18.80;99.90
16838;DHT22;19510;54.486;9.046;2023-07-29T06:27:21;18.80;99.90
16838;DHT22;19510;54.486;9.046;2023-07-29T06:29:47;18.90;99.90
16838;DHT22;19510;54.486;9.046;2023-07-29T06:32:15;18.90;99.90
16838;DHT22;19510;54.486;9.046;2023-07-29T06:34:40;18.90;99.90
16838;DHT22;19510;54.486;9.046;2023-07-29T06:37:06;19.00;99.90
16838;DHT22;19510;54.486;9.046;2023-07-29T06:39:32;19.00;99.90
16838;DHT22;19510;54.486;9.046;2023-07-29T06:42:00;19.10;99.90
16838;DHT22;19510;54.486;9.046;2023-07-29T06:44:26;19.10;99.90
16838;DHT22;19510;54.486;9.046;2023-07-29T06:46:51;19.20;99.90
16838;DHT22;19510;54.486;9.046;2023-07-29T06:49:17;19.30;99.90
16838;DHT22;19510;54.486;9.046;2023-07-29T06:51:43;19.30;99.90
16838;DHT22;19510;54.486;9.046;2023-07-29T06:54:09;19.40;99.90
16838;DHT22;19510;54.486;9.046;2023-07-29T06:56:34;19.40;99.90
16838;DHT22;19510;54.486;9.046;2023-07-29T06:59:00;19.40;99.90
16838;DHT22;19510;54.486;9.046;2023-07-29T07:01:26;19.50;99.90
16838;DHT22;19510;54.486;9.046;2023-07-29T07:03:51;19.50;99.90
16838;DHT22;19510;54.486;9.046;2023-07-29T07:06:21;19.50;99.90
16838;DHT22;19510;54.486;9.046;2023-07-29T07:08:47;19.50;99.90
16838;DHT22;19510;54.486;9.046;2023-07-29T07:11:13;19.50;99.90
16838;DHT22;19510;54.486;9.046;2023-07-29T07:13:39;19.50;99.90
16838;DHT22;19510;54.486;9.046;2023-07-29T07:16:04;19.50;99.90
16838;DHT22;19510;54.486;9.046;2023-07-29T07:18:30;19.50;99.90
16838;DHT22;19510;54.486;9.046;2023-07-29T07:20:56;19.40;99.90
16838;DHT22;19510;54.486;9.046;2023-07-29T07:23:22;19.50;99.90
16838;DHT22;19510;54.486;9.046;2023-07-29T07:25:47;19.50;99.90
16838;DHT22;19510;54.486;9.046;2023-07-29T07:28:13;19.50;99.90
16838;DHT22;19510;54.486;9.046;2023-07-29T07:30:42;19.50;99.90
16838;DHT22;19510;54.486;9.046;2023-07-29T07:33:07;19.50;99.90
16838;DHT22;19510;54.486;9.046;2023-07-29T07:35:33;19.60;99.90
16838;DHT22;19510;54.486;9.046;2023-07-29T07:37:59;19.60;99.90
16838;DHT22;19510;54.486;9.046;2023-07-29T07:40:27;19.60;99.90
16838;DHT22;19510;54.486;9.046;2023-07-29T07:42:53;19.70;99.90
16838;DHT22;19510;54.486;9.046;2023-07-29T07:45:19;19.70;99.90
16838;DHT22;19510;54.486;9.046;2023-07-29T07:47:45;19.80;99.90
16838;DHT22;19510;54.486;9.046;2023-07-29T07:50:11;19.90;99.90
16838;DHT22;19510;54.486;9.046;2023-07-29T07:52:37;19.90;99.90
16838;DHT22;19510;54.486;9.046;2023-07-29T07:55:03;19.90;99.90
16838;DHT22;19510;54.486;9.046;2023-07-29T07:57:28;19.90;99.90
16838;DHT22;19510;54.486;9.046;2023-07-29T07:59:54;20.00;99.90
16838;DHT22;19510;54.486;9.046;2023-07-29T08:02:20;20.00;99.90
16838;DHT22;19510;54.486;9.046;2023-07-29T08:04:45;20.00;99.90
16838;DHT22;19510;54.486;9.046;2023-07-29T08:07:11;20.00;99.90
16838;DHT22;19510;54.486;9.046;2023-07-29T08:09:38;20.00;99.90
16838;DHT22;19510;54.486;9.046;2023-07-29T08:12:04;20.00;99.90
16838;DHT22;19510;54.486;9.046;2023-07-29T08:14:30;20.10;99.90
16838;DHT22;19510;54.486;9.046;2023-07-29T08:16:56;20.10;99.90
16838;DHT22;19510;54.486;9.046;2023-07-29T08:19:21;20.10;99.90
16838;DHT22;19510;54.486;9.046;2023-07-29T08:21:47;20.10;99.90
16838;DHT22;19510;54.486;9.046;2023-07-29T08:24:13;20.10;99.90
16838;DHT22;19510;54.486;9.046;2023-07-29T08:26:38;20.10;99.90
16838;DHT22;19510;54.486;9.046;2023-07-29T08:29:04;20.10;99.90
16838;DHT22;19510;54.486;9.046;2023-07-29T08:31:30;20.10;99.90
16838;DHT22;19510;54.486;9.046;2023-07-29T08:33:59;20.10;99.90
16838;DHT22;19510;54.486;9.046;2023-07-29T08:36:25;20.20;99.90
16838;DHT22;19510;54.486;9.046;2023-07-29T08:38:51;20.20;99.90
16838;DHT22;19510;54.486;9.046;2023-07-29T08:41:21;20.20;99.90
16838;DHT22;19510;54.486;9.046;2023-07-29T08:44:12;20.30;99.90
16838;DHT22;19510;54.486;9.046;2023-07-29T08:46:42;20.30;99.90
16838;DHT22;19510;54.486;9.046;2023-07-29T08:49:08;20.30;99.90
16838;DHT22;19510;54.486;9.046;2023-07-29T08:51:36;20.40;99.90
16838;DHT22;19510;54.486;9.046;2023-07-29T08:54:03;20.40;99.90
16838;DHT22;19510;54.486;9.046;2023-07-29T08:56:29;20.40;99.90
16838;DHT22;19510;54.486;9.046;2023-07-29T08:58:56;20.40;99.90
16838;DHT22;19510;54.486;9.046;2023-07-29T09:01:21;20.40;99.90
16838;DHT22;19510;54.486;9.046;2023-07-29T09:03:47;20.50;99.90
16838;DHT22;19510;54.486;9.046;2023-07-29T09:06:14;20.50;99.90
16838;DHT22;19510;54.486;9.046;2023-07-29T09:08:40;20.60;99.90
16838;DHT22;19510;54.486;9.046;2023-07-29T09:11:06;20.60;99.90
16838;DHT22;19510;54.486;9.046;2023-07-29T09:13:32;20.60;99.90
16838;DHT22;19510;54.486;9.046;2023-07-29T09:15:58;20.70;99.90
16838;DHT22;19510;54.486;9.046;2023-07-29T09:18:26;20.70;99.90
16838;DHT22;19510;54.486;9.046;2023-07-29T09:20:53;20.70;99.90
16838;DHT22;19510;54.486;9.046;2023-07-29T09:23:18;20.80;99.90
16838;DHT22;19510;54.486;9.046;2023-07-29T09:25:46;20.80;99.90
16838;DHT22;19510;54.486;9.046;2023-07-29T09:28:14;20.90;99.90
16838;DHT22;19510;54.486;9.046;2023-07-29T09:30:42;20.90;99.90
16838;DHT22;19510;54.486;9.046;2023-07-29T09:33:09;20.90;99.90
16838;DHT22;19510;54.486;9.046;2023-07-29T09:35:36;20.90;99.90
16838;DHT22;19510;54.486;9.046;2023-07-29T09:38:05;20.90;99.90
16838;DHT22;19510;54.486;9.046;2023-07-29T09:40:36;21.00;99.90
16838;DHT22;19510;54.486;9.046;2023-07-29T09:43:09;21.10;99.90
16838;DHT22;19510;54.486;9.046;2023-07-29T09:45:36;21.10;99.90
16838;DHT22;19510;54.486;9.046;2023-07-29T09:48:03;21.10;99.90
16838;DHT22;19510;54.486;9.046;2023-07-29T09:53:44;21.10;99.90
16838;DHT22;19510;54.486;9.046;2023-07-29T09:56:10;21.10;99.90
16838;DHT22;19510;54.486;9.046;2023-07-29T09:58:38;21.00;99.90
16838;DHT22;19510;54.486;9.046;2023-07-29T10:01:08;21.00;99.90
16838;DHT22;19510;54.486;9.046;2023-07-29T10:03:34;21.10;99.90
16838;DHT22;19510;54.486;9.046;2023-07-29T10:06:05;21.10;99.90
16838;DHT22;19510;54.486;9.046;2023-07-29T10:08:31;21.10;99.90
16838;DHT22;19510;54.486;9.046;2023-07-29T10:11:10;21.20;99.90
16838;DHT22;19510;54.486;9.046;2023-07-29T10:13:37;21.20;99.90
16838;DHT22;19510;54.486;9.046;2023-07-29T10:16:03;21.20;99.90
16838;DHT22;19510;54.486;9.046;2023-07-29T10:18:31;21.20;99.90
16838;DHT22;19510;54.486;9.046;2023-07-29T10:20:58;21.30;99.90
16838;DHT22;19510;54.486;9.046;2023-07-29T10:23:26;21.40;99.90
16838;DHT22;19510;54.486;9.046;2023-07-29T10:25:59;21.60;99.90
16838;DHT22;19510;54.486;9.046;2023-07-29T10:28:31;21.60;99.90
16838;DHT22;19510;54.486;9.046;2023-07-29T10:30:58;21.60;99.90
16838;DHT22;19510;54.486;9.046;2023-07-29T10:33:25;21.60;99.90
16838;DHT22;19510;54.486;9.046;2023-07-29T10:35:51;21.60;99.90
16838;DHT22;19510;54.486;9.046;2023-07-29T10:38:19;21.70;99.90
16838;DHT22;19510;54.486;9.046;2023-07-29T10:40:53;21.70;99.90
16838;DHT22;19510;54.486;9.046;2023-07-29T10:45:58;21.90;99.90
16838;DHT22;19510;54.486;9.046;2023-07-29T10:48:41;21.90;99.90
16838;DHT22;19510;54.486;9.046;2023-07-29T10:54:11;22.20;99.90
16838;DHT22;19510;54.486;9.046;2023-07-29T10:56:41;22.40;99.90
16838;DHT22;19510;54.486;9.046;2023-07-29T11:01:56;22.60;99.90
16838;DHT22;19510;54.486;9.046;2023-07-29T11:04:51;22.70;99.90
16838;DHT22;19510;54.486;9.046;2023-07-29T11:17:44;22.70;99.90
16838;DHT22;19510;54.486;9.046;2023-07-29T11:20:10;22.80;99.90
16838;DHT22;19510;54.486;9.046;2023-07-29T11:22:37;22.90;99.90
16838;DHT22;19510;54.486;9.046;2023-07-29T11:25:04;23.10;99.90
16838;DHT22;19510;54.486;9.046;2023-07-29T11:27:31;23.00;99.90
16838;DHT22;19510;54.486;9.046;2023-07-29T11:30:07;23.00;99.90
16838;DHT22;19510;54.486;9.046;2023-07-29T11:32:34;23.20;99.90
16838;DHT22;19510;54.486;9.046;2023-07-29T11:35:11;23.20;99.90
16838;DHT22;19510;54.486;9.046;2023-07-29T11:37:41;23.30;99.90
16838;DHT22;19510;54.486;9.046;2023-07-29T11:40:12;23.50;99.90
16838;DHT22;19510;54.486;9.046;2023-07-29T11:42:38;23.60;99.90
16838;DHT22;19510;54.486;9.046;2023-07-29T11:45:05;23.70;99.90
16838;DHT22;19510;54.486;9.046;2023-07-29T11:47:32;23.70;99.90
16838;DHT22;19510;54.486;9.046;2023-07-29T11:50:06;23.90;99.90
16838;DHT22;19510;54.486;9.046;2023-07-29T11:52:40;23.80;99.90
16838;DHT22;19510;54.486;9.046;2023-07-29T11:55:07;23.90;99.90
16838;DHT22;19510;54.486;9.046;2023-07-29T11:57:35;24.00;99.90
16838;DHT22;19510;54.486;9.046;2023-07-29T12:00:06;24.10;99.90
16838;DHT22;19510;54.486;9.046;2023-07-29T12:02:33;24.30;99.90
16838;DHT22;19510;54.486;9.046;2023-07-29T12:05:00;24.20;99.90
16838;DHT22;19510;54.486;9.046;2023-07-29T12:07:26;24.10;99.90
16838;DHT22;19510;54.486;9.046;2023-07-29T12:09:52;23.90;99.90
16838;DHT22;19510;54.486;9.046;2023-07-29T12:12:18;23.80;99.90
16838;DHT22;19510;54.486;9.046;2023-07-29T12:14:47;24.00;99.90
16838;DHT22;19510;54.486;9.046;2023-07-29T12:17:13;24.20;99.90
16838;DHT22;19510;54.486;9.046;2023-07-29T12:19:40;24.40;99.90
16838;DHT22;19510;54.486;9.046;2023-07-29T12:22:08;24.60;99.90
16838;DHT22;19510;54.486;9.046;2023-07-29T12:24:36;24.60;99.90
16838;DHT22;19510;54.486;9.046;2023-07-29T12:27:02;24.80;99.90
16838;DHT22;19510;54.486;9.046;2023-07-29T12:29:28;25.00;99.90
16838;DHT22;19510;54.486;9.046;2023-07-29T12:32:01;25.20;99.90
16838;DHT22;19510;54.486;9.046;2023-07-29T12:34:28;25.20;99.90
16838;DHT22;19510;54.486;9.046;2023-07-29T12:36:55;25.10;99.90
16838;DHT22;19510;54.486;9.046;2023-07-29T12:39:23;25.00;99.90
16838;DHT22;19510;54.486;9.046;2023-07-29T12:41:53;24.90;99.90
16838;DHT22;19510;54.486;9.046;2023-07-29T12:44:19;24.80;99.90
16838;DHT22;19510;54.486;9.046;2023-07-29T12:46:45;24.70;99.90
16838;DHT22;19510;54.486;9.046;2023-07-29T12:49:11;24.50;99.90
16838;DHT22;19510;54.486;9.046;2023-07-29T12:51:37;24.30;99.90
16838;DHT22;19510;54.486;9.046;2023-07-29T12:54:04;24.10;99.90
16838;DHT22;19510;54.486;9.046;2023-07-29T12:56:31;24.20;99.90
16838;DHT22;19510;54.486;9.046;2023-07-29T12:58:57;24.30;99.90
16838;DHT22;19510;54.486;9.046;2023-07-29T13:01:24;24.30;99.90
16838;DHT22;19510;54.486;9.046;2023-07-29T13:03:50;24.20;99.90
16838;DHT22;19510;54.486;9.046;2023-07-29T13:06:16;24.50;99.90
16838;DHT22;19510;54.486;9.046;2023-07-29T13:08:43;24.60;99.90
16838;DHT22;19510;54.486;9.046;2023-07-29T13:11:10;24.60;99.90
16838;DHT22;19510;54.486;9.046;2023-07-29T13:13:37;24.70;99.90
16838;DHT22;19510;54.486;9.046;2023-07-29T13:16:04;24.90;99.90
16838;DHT22;19510;54.486;9.046;2023-07-29T13:18:29;24.90;99.90
16838;DHT22;19510;54.486;9.046;2023-07-29T13:21:01;25.00;99.90
16838;DHT22;19510;54.486;9.046;2023-07-29T13:23:27;24.90;99.90
16838;DHT22;19510;54.486;9.046;2023-07-29T13:25:55;24.90;99.90
16838;DHT22;19510;54.486;9.046;2023-07-29T13:28:21;25.10;99.90
16838;DHT22;19510;54.486;9.046;2023-07-29T13:30:47;25.40;99.90
16838;DHT22;19510;54.486;9.046;2023-07-29T13:33:12;25.50;99.90
16838;DHT22;19510;54.486;9.046;2023-07-29T13:35:38;25.60;99.90
16838;DHT22;19510;54.486;9.046;2023-07-29T13:38:04;25.50;99.90
16838;DHT22;19510;54.486;9.046;2023-07-29T13:40:30;25.70;99.90
16838;DHT22;19510;54.486;9.046;2023-07-29T13:42:55;25.80;99.90
16838;DHT22;19510;54.486;9.046;2023-07-29T13:45:21;25.60;99.90
16838;DHT22;19510;54.486;9.046;2023-07-29T13:47:50;25.80;99.90
16838;DHT22;19510;54.486;9.046;2023-07-29T13:50:17;25.60;99.90
16838;DHT22;19510;54.486;9.046;2023-07-29T13:52:43;25.60;99.90
16838;DHT22;19510;54.486;9.046;2023-07-29T13:55:10;25.60;99.90
16838;DHT22;19510;54.486;9.046;2023-07-29T13:57:37;25.60;99.90
16838;DHT22;19510;54.486;9.046;2023-07-29T14:00:03;25.60;99.90
16838;DHT22;19510;54.486;9.046;2023-07-29T14:02:29;25.70;99.90
16838;DHT22;19510;54.486;9.046;2023-07-29T14:04:56;25.70;99.90
16838;DHT22;19510;54.486;9.046;2023-07-29T14:07:22;25.40;99.90
16838;DHT22;19510;54.486;9.046;2023-07-29T14:09:48;25.20;99.90
16838;DHT22;19510;54.486;9.046;2023-07-29T14:12:13;25.20;99.90
16838;DHT22;19510;54.486;9.046;2023-07-29T14:14:41;25.10;99.90
16838;DHT22;19510;54.486;9.046;2023-07-29T14:17:07;25.10;99.90
16838;DHT22;19510;54.486;9.046;2023-07-29T14:19:34;25.30;99.90
16838;DHT22;19510;54.486;9.046;2023-07-29T14:22:00;25.50;99.90
16838;DHT22;19510;54.486;9.046;2023-07-29T14:24:25;25.70;99.90
16838;DHT22;19510;54.486;9.046;2023-07-29T14:26:51;25.60;99.90
16838;DHT22;19510;54.486;9.046;2023-07-29T14:29:17;25.50;99.90
16838;DHT22;19510;54.486;9.046;2023-07-29T14:31:42;25.40;99.90
16838;DHT22;19510;54.486;9.046;2023-07-29T14:34:09;25.50;99.90
16838;DHT22;19510;54.486;9.046;2023-07-29T14:36:37;25.60;99.90
16838;DHT22;19510;54.486;9.046;2023-07-29T14:39:03;25.70;99.90
16838;DHT22;19510;54.486;9.046;2023-07-29T14:41:29;25.60;99.90
16838;DHT22;19510;54.486;9.046;2023-07-29T14:43:55;25.80;99.90
16838;DHT22;19510;54.486;9.046;2023-07-29T14:46:21;25.60;99.90
16838;DHT22;19510;54.486;9.046;2023-07-29T14:48:46;25.60;99.90
16838;DHT22;19510;54.486;9.046;2023-07-29T14:51:13;25.50;99.90
16838;DHT22;19510;54.486;9.046;2023-07-29T14:53:39;25.30;99.90
16838;DHT22;19510;54.486;9.046;2023-07-29T14:56:04;25.50;99.90
16838;DHT22;19510;54.486;9.046;2023-07-29T14:58:30;25.50;99.90
16838;DHT22;19510;54.486;9.046;2023-07-29T15:00:56;25.60;99.90
16838;DHT22;19510;54.486;9.046;2023-07-29T15:03:23;25.60;99.90
16838;DHT22;19510;54.486;9.046;2023-07-29T15:05:49;25.70;99.90
16838;DHT22;19510;54.486;9.046;2023-07-29T15:08:15;25.70;99.90
16838;DHT22;19510;54.486;9.046;2023-07-29T15:10:44;25.80;99.90
16838;DHT22;19510;54.486;9.046;2023-07-29T15:13:10;25.90;99.90
16838;DHT22;19510;54.486;9.046;2023-07-29T15:15:35;25.80;99.90
16838;DHT22;19510;54.486;9.046;2023-07-29T15:18:01;25.90;99.90
16838;DHT22;19510;54.486;9.046;2023-07-29T15:20:27;26.10;99.90
16838;DHT22;19510;54.486;9.046;2023-07-29T15:22:52;26.10;99.90
16838;DHT22;19510;54.486;9.046;2023-07-29T15:25:18;26.20;99.90
16838;DHT22;19510;54.486;9.046;2023-07-29T15:27:44;26.10;99.90
16838;DHT22;19510;54.486;9.046;2023-07-29T15:30:09;26.00;99.90
16838;DHT22;19510;54.486;9.046;2023-07-29T15:32:37;25.80;99.90
16838;DHT22;19510;54.486;9.046;2023-07-29T15:35:03;25.90;99.90
16838;DHT22;19510;54.486;9.046;2023-07-29T15:37:29;26.00;99.90
16838;DHT22;19510;54.486;9.046;2023-07-29T15:39:54;26.10;99.90
16838;DHT22;19510;54.486;9.046;2023-07-29T15:42:20;26.00;99.90
16838;DHT22;19510;54.486;9.046;2023-07-29T15:44:46;26.10;99.90
16838;DHT22;19510;54.486;9.046;2023-07-29T15:47:11;25.70;99.90
16838;DHT22;19510;54.486;9.046;2023-07-29T15:49:41;25.40;99.90
16838;DHT22;19510;54.486;9.046;2023-07-29T15:52:07;25.20;99.90
16838;DHT22;19510;54.486;9.046;2023-07-29T15:54:34;25.00;99.90
16838;DHT22;19510;54.486;9.046;2023-07-29T15:56:59;24.80;99.90